sensor_id;sensor_type;location;lat;lon;timestamp;pressure;altitude;pressure_sealevel;temperature;humidity
13029;BME280;6581;42.662;23.402;2023-01-27T00:00:22;94532.78;;;0.77;100.00
13029;BME280;6581;42.662;23.402;2023-01-27T00:02:50;94521.16;;;0.66;100.00
13029;BME280;6581;42.662;23.402;2023-01-27T00:05:18;94525.56;;;0.74;100.00
13029;BME280;6581;42.662;23.402;2023-01-27T00:07:45;94523.94;;;0.61;100.00
13029;BME280;6581;42.662;23.402;2023-01-27T00:10:15;94518.13;;;0.64;100.00
13029;BME280;6581;42.662;23.402;2023-01-27T00:12:43;94514.59;;;0.60;100.00
13029;BME280;6581;42.662;23.402;2023-01-27T00:15:30;94513.09;;;0.59;100.00
13029;BME280;6581;42.662;23.402;2023-01-27T00:17:58;94516.00;;;0.57;100.00
13029;BME280;6581;42.662;23.402;2023-01-27T00:20:26;94514.16;;;0.58;100.00
13029;BME280;6581;42.662;23.402;2023-01-27T00:23:15;94506.03;;;0.59;100.00
13029;BME280;6581;42.662;23.402;2023-01-27T00:26:02;94498.53;;;0.58;100.00
13029;BME280;6581;42.662;23.402;2023-01-27T00:28:31;94494.22;;;0.62;100.00
13029;BME280;6581;42.662;23.402;2023-01-27T00:30:58;94491.94;;;0.52;100.00
13029;BME280;6581;42.662;23.402;2023-01-27T00:33:27;94497.78;;;0.49;100.00
13029;BME280;6581;42.662;23.402;2023-01-27T00:35:57;94495.19;;;0.49;100.00
13029;BME280;6581;42.662;23.402;2023-01-27T00:38:26;94498.81;;;0.56;100.00
13029;BME280;6581;42.662;23.402;2023-01-27T00:40:53;94492.41;;;0.54;100.00
13029;BME280;6581;42.662;23.402;2023-01-27T00:43:37;94501.09;;;0.66;100.00
13029;BME280;6581;42.662;23.402;2023-01-27T00:46:04;94503.69;;;0.66;100.00
13029;BME280;6581;42.662;23.402;2023-01-27T00:48:33;94506.44;;;0.70;100.00
13029;BME280;6581;42.662;23.402;2023-01-27T00:51:00;94504.59;;;0.70;100.00
13029;BME280;6581;42.662;23.402;2023-01-27T00:53:28;94512.59;;;0.65;100.00
13029;BME280;6581;42.662;23.402;2023-01-27T00:55:55;94508.44;;;0.64;100.00
13029;BME280;6581;42.662;23.402;2023-01-27T00:58:24;94515.66;;;0.67;100.00
13029;BME280;6581;42.662;23.402;2023-01-27T01:00:52;94511.03;;;0.64;100.00
13029;BME280;6581;42.662;23.402;2023-01-27T01:03:19;94508.09;;;0.74;100.00
13029;BME280;6581;42.662;23.402;2023-01-27T01:05:48;94502.63;;;0.67;100.00
13029;BME280;6581;42.662;23.402;2023-01-27T01:08:15;94504.91;;;0.69;100.00
13029;BME280;6581;42.662;23.402;2023-01-27T01:10:42;94502.16;;;0.65;100.00
13029;BME280;6581;42.662;23.402;2023-01-27T01:13:10;94490.69;;;0.58;100.00
13029;BME280;6581;42.662;23.402;2023-01-27T01:15:37;94496.69;;;0.58;100.00
13029;BME280;6581;42.662;23.402;2023-01-27T01:18:06;94485.78;;;0.56;100.00
13029;BME280;6581;42.662;23.402;2023-01-27T01:20:35;94491.47;;;0.58;100.00
13029;BME280;6581;42.662;23.402;2023-01-27T01:23:05;94498.69;;;0.53;100.00
13029;BME280;6581;42.662;23.402;2023-01-27T01:25:34;94493.00;;;0.59;100.00
13029;BME280;6581;42.662;23.402;2023-01-27T01:28:05;94494.97;;;0.62;100.00
13029;BME280;6581;42.662;23.402;2023-01-27T01:30:33;94489.28;;;0.60;100.00
13029;BME280;6581;42.662;23.402;2023-01-27T01:33:00;94483.53;;;0.55;100.00
13029;BME280;6581;42.662;23.402;2023-01-27T01:35:28;94492.06;;;0.55;100.00
13029;BME280;6581;42.662;23.402;2023-01-27T01:37:56;94501.13;;;0.58;100.00
13029;BME280;6581;42.662;23.402;2023-01-27T01:40:25;94515.47;;;0.72;100.00
13029;BME280;6581;42.662;23.402;2023-01-27T01:42:56;94527.88;;;0.75;100.00
13029;BME280;6581;42.662;23.402;2023-01-27T01:45:44;94519.31;;;0.66;100.00
13029;BME280;6581;42.662;23.402;2023-01-27T01:48:15;94516.09;;;0.69;100.00
13029;BME280;6581;42.662;23.402;2023-01-27T01:50:46;94501.09;;;0.66;100.00
13029;BME280;6581;42.662;23.402;2023-01-27T01:53:14;94491.13;;;0.68;100.00
13029;BME280;6581;42.662;23.402;2023-01-27T01:55:44;94485.31;;;0.63;100.00
13029;BME280;6581;42.662;23.402;2023-01-27T01:58:12;94486.22;;;0.67;100.00
13029;BME280;6581;42.662;23.402;2023-01-27T02:01:04;94480.88;;;0.63;100.00
13029;BME280;6581;42.662;23.402;2023-01-27T02:03:33;94467.06;;;0.63;100.00
13029;BME280;6581;42.662;23.402;2023-01-27T02:06:05;94456.66;;;0.63;100.00
13029;BME280;6581;42.662;23.402;2023-01-27T02:08:34;94467.06;;;0.63;100.00
13029;BME280;6581;42.662;23.402;2023-01-27T02:11:06;94456.28;;;0.73;100.00
13029;BME280;6581;42.662;23.402;2023-01-27T02:13:37;94442.81;;;0.71;100.00
13029;BME280;6581;42.662;23.402;2023-01-27T02:16:05;94440.19;;;0.71;100.00
13029;BME280;6581;42.662;23.402;2023-01-27T02:18:33;94440.19;;;0.71;100.00
13029;BME280;6581;42.662;23.402;2023-01-27T02:21:01;94439.44;;;0.70;100.00
13029;BME280;6581;42.662;23.402;2023-01-27T02:23:42;94438.47;;;0.75;100.00
13029;BME280;6581;42.662;23.402;2023-01-27T02:26:15;94446.13;;;0.80;100.00
13029;BME280;6581;42.662;23.402;2023-01-27T02:28:44;94434.09;;;0.67;100.00
13029;BME280;6581;42.662;23.402;2023-01-27T02:31:11;94440.38;;;0.66;100.00
13029;BME280;6581;42.662;23.402;2023-01-27T02:33:38;94437.13;;;0.69;100.00
13029;BME280;6581;42.662;23.402;2023-01-27T02:36:07;94430.66;;;0.75;100.00
13029;BME280;6581;42.662;23.402;2023-01-27T02:38:39;94433.91;;;0.72;100.00
13029;BME280;6581;42.662;23.402;2023-01-27T02:41:15;94432.19;;;0.76;100.00
13029;BME280;6581;42.662;23.402;2023-01-27T02:43:44;94437.41;;;0.76;100.00
13029;BME280;6581;42.662;23.402;2023-01-27T02:46:11;94444.00;;;0.73;100.00
13029;BME280;6581;42.662;23.402;2023-01-27T02:48:38;94444.00;;;0.73;100.00
13029;BME280;6581;42.662;23.402;2023-01-27T02:51:06;94452.59;;;0.74;100.00
13029;BME280;6581;42.662;23.402;2023-01-27T02:53:34;94455.66;;;0.76;100.00
13029;BME280;6581;42.662;23.402;2023-01-27T02:56:02;94455.66;;;0.76;100.00
13029;BME280;6581;42.662;23.402;2023-01-27T02:58:30;94451.28;;;0.88;100.00
13029;BME280;6581;42.662;23.402;2023-01-27T03:01:06;94451.75;;;0.91;100.00
13029;BME280;6581;42.662;23.402;2023-01-27T03:03:33;94442.25;;;0.86;100.00
13029;BME280;6581;42.662;23.402;2023-01-27T03:06:00;94439.38;;;0.79;100.00
13029;BME280;6581;42.662;23.402;2023-01-27T03:08:27;94427.56;;;0.81;100.00
13029;BME280;6581;42.662;23.402;2023-01-27T03:10:54;94424.44;;;0.88;100.00
13029;BME280;6581;42.662;23.402;2023-01-27T03:13:22;94432.50;;;0.74;100.00
13029;BME280;6581;42.662;23.402;2023-01-27T03:15:53;94426.22;;;0.75;100.00
13029;BME280;6581;42.662;23.402;2023-01-27T03:18:38;94422.06;;;0.74;100.00
13029;BME280;6581;42.662;23.402;2023-01-27T03:21:06;94408.03;;;0.67;100.00
13029;BME280;6581;42.662;23.402;2023-01-27T03:23:33;94412.28;;;0.71;100.00
13029;BME280;6581;42.662;23.402;2023-01-27T03:26:04;94417.38;;;0.68;100.00
13029;BME280;6581;42.662;23.402;2023-01-27T03:28:32;94403.84;;;0.74;100.00
13029;BME280;6581;42.662;23.402;2023-01-27T03:31:17;94399.84;;;0.77;100.00
13029;BME280;6581;42.662;23.402;2023-01-27T03:33:50;94389.41;;;0.77;100.00
13029;BME280;6581;42.662;23.402;2023-01-27T03:36:24;94371.75;;;0.82;100.00
13029;BME280;6581;42.662;23.402;2023-01-27T03:39:08;94364.22;;;0.81;100.00
13029;BME280;6581;42.662;23.402;2023-01-27T03:41:52;94364.16;;;0.69;100.00
13029;BME280;6581;42.662;23.402;2023-01-27T03:44:45;94368.47;;;0.65;100.00
13029;BME280;6581;42.662;23.402;2023-01-27T03:47:31;94364.34;;;0.64;100.00
13029;BME280;6581;42.662;23.402;2023-01-27T03:49:59;94367.56;;;0.61;100.00
13029;BME280;6581;42.662;23.402;2023-01-27T03:52:26;94369.94;;;0.74;100.00
13029;BME280;6581;42.662;23.402;2023-01-27T03:54:53;94365.97;;;0.77;100.00
13029;BME280;6581;42.662;23.402;2023-01-27T03:57:20;94374.38;;;0.74;100.00
13029;BME280;6581;42.662;23.402;2023-01-27T03:59:47;94374.72;;;0.72;100.00
13029;BME280;6581;42.662;23.402;2023-01-27T04:02:14;94376.38;;;0.77;100.00
13029;BME280;6581;42.662;23.402;2023-01-27T04:05:00;94392.44;;;0.79;100.00
13029;BME280;6581;42.662;23.402;2023-01-27T04:07:44;94410.22;;;0.85;100.00
13029;BME280;6581;42.662;23.402;2023-01-27T04:10:12;94426.09;;;0.93;100.00
13029;BME280;6581;42.662;23.402;2023-01-27T04:12:39;94439.00;;;0.89;100.00
13029;BME280;6581;42.662;23.402;2023-01-27T04:15:06;94447.31;;;0.91;100.00
13029;BME280;6581;42.662;23.402;2023-01-27T04:17:33;94445.47;;;0.92;100.00
13029;BME280;6581;42.662;23.402;2023-01-27T04:20:05;94435.03;;;0.92;100.00
13029;BME280;6581;42.662;23.402;2023-01-27T04:22:32;94440.50;;;0.99;100.00
13029;BME280;6581;42.662;23.402;2023-01-27T04:24:59;94432.66;;;0.99;100.00
13029;BME280;6581;42.662;23.402;2023-01-27T04:27:26;94432.44;;;0.83;100.00
13029;BME280;6581;42.662;23.402;2023-01-27T04:29:54;94448.59;;;0.76;100.00
13029;BME280;6581;42.662;23.402;2023-01-27T04:32:20;94470.34;;;0.80;100.00
13029;BME280;6581;42.662;23.402;2023-01-27T04:34:48;94470.66;;;0.79;100.00
13029;BME280;6581;42.662;23.402;2023-01-27T04:37:16;94463.16;;;0.77;100.00
13029;BME280;6581;42.662;23.402;2023-01-27T04:39:43;94450.50;;;0.67;100.00
13029;BME280;6581;42.662;23.402;2023-01-27T04:42:10;94470.41;;;0.72;100.00
13029;BME280;6581;42.662;23.402;2023-01-27T04:44:37;94467.97;;;0.67;100.00
13029;BME280;6581;42.662;23.402;2023-01-27T04:47:04;94456.84;;;0.78;100.00
13029;BME280;6581;42.662;23.402;2023-01-27T04:49:31;94464.56;;;0.75;100.00
13029;BME280;6581;42.662;23.402;2023-01-27T04:51:58;94458.63;;;0.66;100.00
13029;BME280;6581;42.662;23.402;2023-01-27T04:54:27;94468.59;;;0.64;100.00
13029;BME280;6581;42.662;23.402;2023-01-27T04:56:56;94463.56;;;0.59;100.00
13029;BME280;6581;42.662;23.402;2023-01-27T04:59:24;94467.06;;;0.63;100.00
13029;BME280;6581;42.662;23.402;2023-01-27T05:01:51;94474.56;;;0.64;100.00
13029;BME280;6581;42.662;23.402;2023-01-27T05:04:18;94460.06;;;0.55;100.00
13029;BME280;6581;42.662;23.402;2023-01-27T05:06:45;94462.66;;;0.55;100.00
13029;BME280;6581;42.662;23.402;2023-01-27T05:09:12;94466.31;;;0.62;100.00
13029;BME280;6581;42.662;23.402;2023-01-27T05:11:41;94467.38;;;0.61;100.00
13029;BME280;6581;42.662;23.402;2023-01-27T05:14:07;94457.41;;;0.63;100.00
13029;BME280;6581;42.662;23.402;2023-01-27T05:16:37;94452.97;;;0.64;100.00
13029;BME280;6581;42.662;23.402;2023-01-27T05:19:04;94456.53;;;0.59;100.00
13029;BME280;6581;42.662;23.402;2023-01-27T05:21:32;94460.63;;;0.60;100.00
13029;BME280;6581;42.662;23.402;2023-01-27T05:24:00;94456.19;;;0.61;100.00
13029;BME280;6581;42.662;23.402;2023-01-27T05:26:27;94446.28;;;0.54;100.00
13029;BME280;6581;42.662;23.402;2023-01-27T05:28:57;94441.81;;;0.55;100.00
13029;BME280;6581;42.662;23.402;2023-01-27T05:31:26;94447.47;;;0.57;100.00
13029;BME280;6581;42.662;23.402;2023-01-27T05:33:54;94440.50;;;0.69;100.00
13029;BME280;6581;42.662;23.402;2023-01-27T05:36:23;94447.00;;;0.63;100.00
13029;BME280;6581;42.662;23.402;2023-01-27T05:38:51;94436.69;;;0.67;100.00
13029;BME280;6581;42.662;23.402;2023-01-27T05:41:19;94437.59;;;0.71;100.00
13029;BME280;6581;42.662;23.402;2023-01-27T05:43:50;94421.06;;;0.67;100.00
13029;BME280;6581;42.662;23.402;2023-01-27T05:46:21;94420.16;;;0.63;100.00
13029;BME280;6581;42.662;23.402;2023-01-27T05:48:50;94423.06;;;0.61;100.00
13029;BME280;6581;42.662;23.402;2023-01-27T05:51:19;94432.84;;;0.64;100.00
13029;BME280;6581;42.662;23.402;2023-01-27T05:53:46;94436.81;;;0.70;100.00
13029;BME280;6581;42.662;23.402;2023-01-27T05:56:15;94444.66;;;0.70;100.00
13029;BME280;6581;42.662;23.402;2023-01-27T05:58:43;94449.44;;;0.60;100.00
13029;BME280;6581;42.662;23.402;2023-01-27T06:01:12;94455.72;;;0.67;100.00
13029;BME280;6581;42.662;23.402;2023-01-27T06:03:42;94456.31;;;0.64;100.00
13029;BME280;6581;42.662;23.402;2023-01-27T06:06:10;94450.94;;;0.69;100.00
13029;BME280;6581;42.662;23.402;2023-01-27T06:08:37;94447.03;;;0.84;100.00
13029;BME280;6581;42.662;23.402;2023-01-27T06:11:05;94443.47;;;0.88;100.00
13029;BME280;6581;42.662;23.402;2023-01-27T06:13:33;94434.16;;;0.79;100.00
13029;BME280;6581;42.662;23.402;2023-01-27T06:16:01;94444.22;;;0.89;100.00
13029;BME280;6581;42.662;23.402;2023-01-27T06:18:28;94452.19;;;0.93;100.00
13029;BME280;6581;42.662;23.402;2023-01-27T06:20:58;94455.69;;;0.97;100.00
13029;BME280;6581;42.662;23.402;2023-01-27T06:23:26;94459.63;;;1.03;100.00
13029;BME280;6581;42.662;23.402;2023-01-27T06:25:54;94453.78;;;1.06;100.00
13029;BME280;6581;42.662;23.402;2023-01-27T06:28:21;94447.25;;;1.00;100.00
13029;BME280;6581;42.662;23.402;2023-01-27T06:30:48;94448.78;;;1.01;100.00
13029;BME280;6581;42.662;23.402;2023-01-27T06:33:17;94450.16;;;0.98;100.00
13029;BME280;6581;42.662;23.402;2023-01-27T06:35:44;94449.84;;;1.00;100.00
13029;BME280;6581;42.662;23.402;2023-01-27T06:38:13;94447.91;;;0.88;100.00
13029;BME280;6581;42.662;23.402;2023-01-27T06:40:40;94455.47;;;0.81;100.00
13029;BME280;6581;42.662;23.402;2023-01-27T06:43:13;94452.34;;;0.87;100.00
13029;BME280;6581;42.662;23.402;2023-01-27T06:45:40;94466.16;;;0.88;100.00
13029;BME280;6581;42.662;23.402;2023-01-27T06:48:08;94473.28;;;0.79;100.00
13029;BME280;6581;42.662;23.402;2023-01-27T06:50:35;94470.53;;;0.75;100.00
13029;BME280;6581;42.662;23.402;2023-01-27T06:53:03;94473.59;;;0.77;100.00
13029;BME280;6581;42.662;23.402;2023-01-27T06:55:35;94479.06;;;0.84;100.00
13029;BME280;6581;42.662;23.402;2023-01-27T06:58:06;94480.47;;;0.82;100.00
13029;BME280;6581;42.662;23.402;2023-01-27T07:00:34;94478.44;;;0.87;100.00
13029;BME280;6581;42.662;23.402;2023-01-27T07:03:01;94483.47;;;0.93;100.00
13029;BME280;6581;42.662;23.402;2023-01-27T07:05:28;94481.97;;;0.92;100.00
13029;BME280;6581;42.662;23.402;2023-01-27T07:07:55;94477.94;;;0.94;100.00
13029;BME280;6581;42.662;23.402;2023-01-27T07:10:23;94492.53;;;0.95;100.00
13029;BME280;6581;42.662;23.402;2023-01-27T07:12:51;94475.97;;;0.91;100.00
13029;BME280;6581;42.662;23.402;2023-01-27T07:15:43;94480.59;;;0.85;100.00
13029;BME280;6581;42.662;23.402;2023-01-27T07:18:12;94472.44;;;0.96;100.00
13029;BME280;6581;42.662;23.402;2023-01-27T07:20:40;94471.16;;;1.02;100.00
13029;BME280;6581;42.662;23.402;2023-01-27T07:23:08;94476.75;;;0.92;100.00
13029;BME280;6581;42.662;23.402;2023-01-27T07:25:35;94470.59;;;0.96;100.00
13029;BME280;6581;42.662;23.402;2023-01-27T07:28:04;94474.03;;;1.09;100.00
13029;BME280;6581;42.662;23.402;2023-01-27T07:30:31;94479.78;;;1.23;100.00
13029;BME280;6581;42.662;23.402;2023-01-27T07:33:02;94477.47;;;1.21;100.00
13029;BME280;6581;42.662;23.402;2023-01-27T07:35:30;94479.38;;;1.33;100.00
13029;BME280;6581;42.662;23.402;2023-01-27T07:37:57;94480.13;;;1.33;100.00
13029;BME280;6581;42.662;23.402;2023-01-27T07:40:24;94471.75;;;1.28;100.00
13029;BME280;6581;42.662;23.402;2023-01-27T07:42:51;94485.25;;;1.30;100.00
13029;BME280;6581;42.662;23.402;2023-01-27T07:45:20;94477.88;;;1.32;100.00
13029;BME280;6581;42.662;23.402;2023-01-27T07:47:47;94484.84;;;1.19;100.00
13029;BME280;6581;42.662;23.402;2023-01-27T07:50:39;94480.91;;;1.13;100.00
13029;BME280;6581;42.662;23.402;2023-01-27T07:53:06;94493.38;;;1.08;100.00
13029;BME280;6581;42.662;23.402;2023-01-27T07:55:33;94492.78;;;1.02;100.00
13029;BME280;6581;42.662;23.402;2023-01-27T07:58:01;94489.56;;;0.97;100.00
13029;BME280;6581;42.662;23.402;2023-01-27T08:00:29;94482.03;;;1.04;100.00
13029;BME280;6581;42.662;23.402;2023-01-27T08:02:58;94484.72;;;1.16;100.00
13029;BME280;6581;42.662;23.402;2023-01-27T08:05:25;94487.50;;;1.11;100.00
13029;BME280;6581;42.662;23.402;2023-01-27T08:07:54;94488.22;;;1.20;100.00
13029;BME280;6581;42.662;23.402;2023-01-27T08:10:46;94484.47;;;1.29;100.00
13029;BME280;6581;42.662;23.402;2023-01-27T08:13:16;94485.16;;;1.18;100.00
13029;BME280;6581;42.662;23.402;2023-01-27T08:15:44;94482.56;;;1.18;100.00
13029;BME280;6581;42.662;23.402;2023-01-27T08:18:36;94475.63;;;1.22;100.00
13029;BME280;6581;42.662;23.402;2023-01-27T08:21:05;94473.59;;;1.27;100.00
13029;BME280;6581;42.662;23.402;2023-01-27T08:23:33;94475.88;;;1.29;100.00
13029;BME280;6581;42.662;23.402;2023-01-27T08:26:02;94484.94;;;1.31;100.00
13029;BME280;6581;42.662;23.402;2023-01-27T08:28:30;94481.09;;;1.29;100.00
13029;BME280;6581;42.662;23.402;2023-01-27T08:31:05;94487.41;;;1.28;100.00
13029;BME280;6581;42.662;23.402;2023-01-27T08:33:32;94492.34;;;1.21;100.00
13029;BME280;6581;42.662;23.402;2023-01-27T08:36:04;94487.06;;;1.29;100.00
13029;BME280;6581;42.662;23.402;2023-01-27T08:38:32;94478.31;;;1.34;100.00
13029;BME280;6581;42.662;23.402;2023-01-27T08:41:03;94497.25;;;1.43;100.00
13029;BME280;6581;42.662;23.402;2023-01-27T08:43:30;94504.03;;;1.23;100.00
13029;BME280;6581;42.662;23.402;2023-01-27T08:45:59;94507.94;;;1.29;100.00
13029;BME280;6581;42.662;23.402;2023-01-27T08:48:28;94495.44;;;1.23;100.00
13029;BME280;6581;42.662;23.402;2023-01-27T08:50:56;94496.19;;;1.23;100.00
13029;BME280;6581;42.662;23.402;2023-01-27T08:53:23;94496.94;;;1.24;100.00
13029;BME280;6581;42.662;23.402;2023-01-27T08:55:51;94487.91;;;1.21;100.00
13029;BME280;6581;42.662;23.402;2023-01-27T08:58:20;94490.44;;;1.30;100.00
13029;BME280;6581;42.662;23.402;2023-01-27T09:00:48;94485.53;;;1.28;100.00
13029;BME280;6581;42.662;23.402;2023-01-27T09:03:15;94486.72;;;1.40;100.00
13029;BME280;6581;42.662;23.402;2023-01-27T09:05:43;94491.47;;;1.38;100.00
13029;BME280;6581;42.662;23.402;2023-01-27T09:08:11;94491.16;;;1.39;100.00
13029;BME280;6581;42.662;23.402;2023-01-27T09:10:39;94483.69;;;1.29;100.00
13029;BME280;6581;42.662;23.402;2023-01-27T09:13:06;94475.69;;;1.34;100.00
13029;BME280;6581;42.662;23.402;2023-01-27T09:15:34;94484.09;;;1.40;100.00
13029;BME280;6581;42.662;23.402;2023-01-27T09:18:02;94484.16;;;1.31;100.00
13029;BME280;6581;42.662;23.402;2023-01-27T09:20:29;94492.94;;;1.26;100.00
13029;BME280;6581;42.662;23.402;2023-01-27T09:22:58;94488.38;;;1.23;100.00
13029;BME280;6581;42.662;23.402;2023-01-27T09:25:25;94479.06;;;1.14;100.00
13029;BME280;6581;42.662;23.402;2023-01-27T09:28:04;94476.00;;;1.12;100.00
13029;BME280;6581;42.662;23.402;2023-01-27T09:30:36;94477.94;;;1.23;100.00
13029;BME280;6581;42.662;23.402;2023-01-27T09:33:27;94473.69;;;1.10;100.00
13029;BME280;6581;42.662;23.402;2023-01-27T09:35:58;94462.06;;;0.87;100.00
13029;BME280;6581;42.662;23.402;2023-01-27T09:38:28;94461.59;;;0.85;100.00
13029;BME280;6581;42.662;23.402;2023-01-27T09:41:21;94457.56;;;0.87;100.00
13029;BME280;6581;42.662;23.402;2023-01-27T09:44:11;94443.03;;;0.86;100.00
13029;BME280;6581;42.662;23.402;2023-01-27T09:46:54;94444.53;;;0.87;100.00
13029;BME280;6581;42.662;23.402;2023-01-27T09:52:42;94444.44;;;1.05;100.00
13029;BME280;6581;42.662;23.402;2023-01-27T09:55:20;94434.44;;;1.07;100.00
13029;BME280;6581;42.662;23.402;2023-01-27T09:57:56;94430.84;;;0.99;100.00
13029;BME280;6581;42.662;23.402;2023-01-27T10:00:35;94415.16;;;0.78;100.00
13029;BME280;6581;42.662;23.402;2023-01-27T10:03:21;94427.81;;;0.88;100.00
13029;BME280;6581;42.662;23.402;2023-01-27T10:06:13;94432.66;;;0.99;100.00
13029;BME280;6581;42.662;23.402;2023-01-27T10:09:15;94428.88;;;0.96;100.00
13029;BME280;6581;42.662;23.402;2023-01-27T10:11:55;94424.66;;;1.04;100.00
13029;BME280;6581;42.662;23.402;2023-01-27T10:14:33;94424.72;;;1.16;100.00
13029;BME280;6581;42.662;23.402;2023-01-27T10:17:16;94424.66;;;1.04;100.00
13029;BME280;6581;42.662;23.402;2023-01-27T10:20:22;94429.88;;;1.04;100.00
13029;BME280;6581;42.662;23.402;2023-01-27T10:23:01;94421.81;;;1.17;100.00
13029;BME280;6581;42.662;23.402;2023-01-27T10:25:39;94428.97;;;1.20;100.00
13029;BME280;6581;42.662;23.402;2023-01-27T10:28:16;94430.53;;;1.01;100.00
13029;BME280;6581;42.662;23.402;2023-01-27T10:30:50;94429.41;;;1.02;100.00
13029;BME280;6581;42.662;23.402;2023-01-27T10:33:20;94427.91;;;1.01;100.00
13029;BME280;6581;42.662;23.402;2023-01-27T10:35:51;94417.66;;;0.96;100.00
13029;BME280;6581;42.662;23.402;2023-01-27T10:38:31;94419.94;;;0.97;100.00
13029;BME280;6581;42.662;23.402;2023-01-27T10:41:08;94423.19;;;0.94;100.00
13029;BME280;6581;42.662;23.402;2023-01-27T10:43:54;94425.81;;;0.94;100.00
13029;BME280;6581;42.662;23.402;2023-01-27T10:46:32;94422.88;;;0.96;100.00
13029;BME280;6581;42.662;23.402;2023-01-27T10:49:05;94420.63;;;1.06;100.00
13029;BME280;6581;42.662;23.402;2023-01-27T10:51:35;94422.47;;;1.06;100.00
13029;BME280;6581;42.662;23.402;2023-01-27T10:54:09;94417.34;;;1.18;100.00
13029;BME280;6581;42.662;23.402;2023-01-27T10:56:42;94420.97;;;1.05;100.00
13029;BME280;6581;42.662;23.402;2023-01-27T10:59:21;94417.66;;;0.96;100.00
13029;BME280;6581;42.662;23.402;2023-01-27T11:01:52;94419.69;;;1.11;100.00
13029;BME280;6581;42.662;23.402;2023-01-27T11:04:29;94413.78;;;1.02;100.00
13029;BME280;6581;42.662;23.402;2023-01-27T11:07:00;94411.94;;;1.02;100.00
13029;BME280;6581;42.662;23.402;2023-01-27T11:09:28;94412.44;;;0.96;100.00
13029;BME280;6581;42.662;23.402;2023-01-27T11:11:59;94413.22;;;0.96;100.00
13029;BME280;6581;42.662;23.402;2023-01-27T11:14:31;94399.34;;;1.04;100.00
13029;BME280;6581;42.662;23.402;2023-01-27T11:17:03;94399.97;;;1.22;100.00
13029;BME280;6581;42.662;23.402;2023-01-27T11:19:42;94393.78;;;1.06;100.00
13029;BME280;6581;42.662;23.402;2023-01-27T11:22:17;94395.13;;;1.12;100.00
13029;BME280;6581;42.662;23.402;2023-01-27T11:24:49;94390.81;;;1.16;100.00
13029;BME280;6581;42.662;23.402;2023-01-27T11:27:26;94389.34;;;1.06;100.00
13029;BME280;6581;42.662;23.402;2023-01-27T11:30:02;94394.19;;;0.96;100.00
13029;BME280;6581;42.662;23.402;2023-01-27T11:33:02;94384.44;;;0.84;100.00
13029;BME280;6581;42.662;23.402;2023-01-27T11:35:32;94389.53;;;0.80;100.00
13029;BME280;6581;42.662;23.402;2023-01-27T11:37:58;94388.66;;;0.76;100.00
13029;BME280;6581;42.662;23.402;2023-01-27T11:40:29;94385.09;;;0.81;100.00
13029;BME280;6581;42.662;23.402;2023-01-27T11:42:58;94392.72;;;0.86;100.00
13029;BME280;6581;42.662;23.402;2023-01-27T11:45:29;94382.66;;;0.97;100.00
13029;BME280;6581;42.662;23.402;2023-01-27T11:47:59;94380.13;;;0.88;100.00
13029;BME280;6581;42.662;23.402;2023-01-27T11:50:29;94376.13;;;0.91;100.00
13029;BME280;6581;42.662;23.402;2023-01-27T11:53:05;94385.03;;;0.89;100.00
13029;BME280;6581;42.662;23.402;2023-01-27T11:55:37;94382.25;;;0.95;100.00
13029;BME280;6581;42.662;23.402;2023-01-27T11:58:33;94383.78;;;0.96;100.00
13029;BME280;6581;42.662;23.402;2023-01-27T12:01:08;94373.97;;;0.93;100.00
13029;BME280;6581;42.662;23.402;2023-01-27T12:03:45;94374.84;;;0.97;100.00
13029;BME280;6581;42.662;23.402;2023-01-27T12:06:16;94378.78;;;1.03;100.00
13029;BME280;6581;42.662;23.402;2023-01-27T12:08:50;94370.22;;;1.02;100.00
13029;BME280;6581;42.662;23.402;2023-01-27T12:11:20;94378.16;;;1.06;100.00
13029;BME280;6581;42.662;23.402;2023-01-27T12:13:50;94384.72;;;1.12;100.00
13029;BME280;6581;42.662;23.402;2023-01-27T12:16:19;94382.94;;;1.04;100.00
13029;BME280;6581;42.662;23.402;2023-01-27T12:18:50;94378.22;;;0.97;100.00
13029;BME280;6581;42.662;23.402;2023-01-27T12:21:19;94373.00;;;0.97;100.00
13029;BME280;6581;42.662;23.402;2023-01-27T12:23:49;94378.50;;;1.04;100.00
13029;BME280;6581;42.662;23.402;2023-01-27T12:26:28;94380.63;;;1.02;100.00
13029;BME280;6581;42.662;23.402;2023-01-27T12:28:58;94382.56;;;1.14;100.00
13029;BME280;6581;42.662;23.402;2023-01-27T12:31:32;94379.06;;;1.10;100.00
13029;BME280;6581;42.662;23.402;2023-01-27T12:34:20;94380.63;;;1.23;100.00
13029;BME280;6581;42.662;23.402;2023-01-27T12:36:49;94382.78;;;1.21;100.00
13029;BME280;6581;42.662;23.402;2023-01-27T12:39:40;94380.44;;;1.07;100.00
13029;BME280;6581;42.662;23.402;2023-01-27T12:42:33;94374.28;;;1.12;100.00
13029;BME280;6581;42.662;23.402;2023-01-27T12:45:17;94370.28;;;1.14;100.00
13029;BME280;6581;42.662;23.402;2023-01-27T12:50:39;94380.38;;;1.37;100.00
13029;BME280;6581;42.662;23.402;2023-01-27T12:53:11;94378.56;;;1.49;100.00
13029;BME280;6581;42.662;23.402;2023-01-27T12:55:40;94378.56;;;1.49;100.00
13029;BME280;6581;42.662;23.402;2023-01-27T12:58:33;94375.84;;;1.46;100.00
13029;BME280;6581;42.662;23.402;2023-01-27T13:01:02;94385.59;;;1.37;100.00
13029;BME280;6581;42.662;23.402;2023-01-27T13:03:37;94382.41;;;1.31;100.00
13029;BME280;6581;42.662;23.402;2023-01-27T13:06:06;94371.03;;;1.48;100.00
13029;BME280;6581;42.662;23.402;2023-01-27T13:08:38;94379.44;;;1.53;100.00
13029;BME280;6581;42.662;23.402;2023-01-27T13:11:06;94374.81;;;1.71;100.00
13029;BME280;6581;42.662;23.402;2023-01-27T13:13:33;94381.41;;;1.56;100.00
13029;BME280;6581;42.662;23.402;2023-01-27T13:16:13;94377.22;;;1.43;100.00
13029;BME280;6581;42.662;23.402;2023-01-27T13:18:52;94381.56;;;1.39;100.00
13029;BME280;6581;42.662;23.402;2023-01-27T13:21:21;94379.84;;;1.43;100.00
13029;BME280;6581;42.662;23.402;2023-01-27T13:23:50;94369.88;;;1.57;100.00
13029;BME280;6581;42.662;23.402;2023-01-27T13:26:22;94382.16;;;1.57;100.00
13029;BME280;6581;42.662;23.402;2023-01-27T13:28:55;94382.31;;;1.40;100.00